sensor_id;sensor_type;location;lat;lon;timestamp;pressure;altitude;pressure_sealevel;temperature;humidity
59588;BME280;45412;54.472;18.464;2022-07-05T00:02:03;100147.79;;;13.20;81.75
59588;BME280;45412;54.472;18.464;2022-07-05T00:04:51;100145.30;;;13.20;81.70
59588;BME280;45412;54.472;18.464;2022-07-05T00:07:40;100141.33;;;13.19;81.59
59588;BME280;45412;54.472;18.464;2022-07-05T00:10:31;100136.16;;;13.17;81.57
59588;BME280;45412;54.472;18.464;2022-07-05T00:13:20;100133.76;;;13.14;81.56
59588;BME280;45412;54.472;18.464;2022-07-05T00:16:08;100129.63;;;13.12;81.77
59588;BME280;45412;54.472;18.464;2022-07-05T00:18:56;100133.38;;;13.10;81.89
59588;BME280;45412;54.472;18.464;2022-07-05T00:21:44;100138.23;;;13.07;81.99
59588;BME280;45412;54.472;18.464;2022-07-05T00:24:33;100142.02;;;13.05;81.63
59588;BME280;45412;54.472;18.464;2022-07-05T00:27:22;100139.63;;;13.01;81.98
59588;BME280;45412;54.472;18.464;2022-07-05T00:30:11;100140.52;;;12.99;82.28
59588;BME280;45412;54.472;18.464;2022-07-05T00:32:59;100143.02;;;12.97;82.34
59588;BME280;45412;54.472;18.464;2022-07-05T00:35:47;100146.67;;;12.92;82.36
59588;BME280;45412;54.472;18.464;2022-07-05T00:38:36;100146.65;;;12.88;82.52
59588;BME280;45412;54.472;18.464;2022-07-05T00:41:25;100148.68;;;12.85;82.64
59588;BME280;45412;54.472;18.464;2022-07-05T00:44:13;100147.23;;;12.81;82.96
59588;BME280;45412;54.472;18.464;2022-07-05T00:47:05;100153.19;;;12.80;83.33
59588;BME280;45412;54.472;18.464;2022-07-05T00:49:54;100152.73;;;12.79;83.36
59588;BME280;45412;54.472;18.464;2022-07-05T00:52:42;100158.04;;;12.80;83.59
59588;BME280;45412;54.472;18.464;2022-07-05T00:55:30;100164.67;;;12.79;83.61
59588;BME280;45412;54.472;18.464;2022-07-05T00:58:18;100166.79;;;12.80;83.61
59588;BME280;45412;54.472;18.464;2022-07-05T01:01:09;100162.50;;;12.80;83.62
59588;BME280;45412;54.472;18.464;2022-07-05T01:03:57;100165.03;;;12.81;83.61
59588;BME280;45412;54.472;18.464;2022-07-05T01:06:48;100158.35;;;12.82;83.90
59588;BME280;45412;54.472;18.464;2022-07-05T01:09:37;100159.58;;;12.83;83.53
59588;BME280;45412;54.472;18.464;2022-07-05T01:12:25;100159.75;;;12.83;83.62
59588;BME280;45412;54.472;18.464;2022-07-05T01:15:14;100157.64;;;12.83;83.47
59588;BME280;45412;54.472;18.464;2022-07-05T01:18:04;100155.41;;;12.81;83.31
59588;BME280;45412;54.472;18.464;2022-07-05T01:20:54;100154.59;;;12.81;83.59
59588;BME280;45412;54.472;18.464;2022-07-05T01:23:42;100151.45;;;12.80;83.64
59588;BME280;45412;54.472;18.464;2022-07-05T01:26:31;100149.34;;;12.80;83.62
59588;BME280;45412;54.472;18.464;2022-07-05T01:29:23;100149.05;;;12.79;83.48
59588;BME280;45412;54.472;18.464;2022-07-05T01:32:12;100146.00;;;12.77;83.68
59588;BME280;45412;54.472;18.464;2022-07-05T01:35:01;100147.77;;;12.77;83.78
59588;BME280;45412;54.472;18.464;2022-07-05T01:37:51;100150.85;;;12.76;83.75
59588;BME280;45412;54.472;18.464;2022-07-05T01:40:39;100150.38;;;12.76;83.75
59588;BME280;45412;54.472;18.464;2022-07-05T01:43:28;100138.59;;;12.72;83.67
59588;BME280;45412;54.472;18.464;2022-07-05T01:46:22;100142.11;;;12.74;83.47
59588;BME280;45412;54.472;18.464;2022-07-05T01:49:13;100141.64;;;12.76;83.65
59588;BME280;45412;54.472;18.464;2022-07-05T01:52:10;100136.91;;;12.77;83.47
59588;BME280;45412;54.472;18.464;2022-07-05T01:54:59;100133.10;;;12.78;83.52
59588;BME280;45412;54.472;18.464;2022-07-05T01:57:49;100132.45;;;12.77;83.41
59588;BME280;45412;54.472;18.464;2022-07-05T02:00:51;100130.45;;;12.75;83.37
59588;BME280;45412;54.472;18.464;2022-07-05T02:03:40;100131.13;;;12.74;83.39
59588;BME280;45412;54.472;18.464;2022-07-05T02:06:45;100131.23;;;12.73;83.48
59588;BME280;45412;54.472;18.464;2022-07-05T02:09:33;100133.51;;;12.73;83.71
59588;BME280;45412;54.472;18.464;2022-07-05T02:12:22;100130.40;;;12.72;83.66
59588;BME280;45412;54.472;18.464;2022-07-05T02:15:11;100130.96;;;12.72;83.63
59588;BME280;45412;54.472;18.464;2022-07-05T02:18:01;100135.23;;;12.72;83.92
59588;BME280;45412;54.472;18.464;2022-07-05T02:20:50;100133.47;;;12.71;83.96
59588;BME280;45412;54.472;18.464;2022-07-05T02:23:38;100135.67;;;12.71;83.89
59588;BME280;45412;54.472;18.464;2022-07-05T02:26:27;100136.08;;;12.70;83.93
59588;BME280;45412;54.472;18.464;2022-07-05T02:29:16;100133.41;;;12.70;84.09
59588;BME280;45412;54.472;18.464;2022-07-05T02:32:05;100129.89;;;12.70;84.03
59588;BME280;45412;54.472;18.464;2022-07-05T02:34:56;100132.95;;;12.71;84.27
59588;BME280;45412;54.472;18.464;2022-07-05T02:37:44;100135.56;;;12.74;84.01
59588;BME280;45412;54.472;18.464;2022-07-05T02:40:32;100139.05;;;12.77;84.36
59588;BME280;45412;54.472;18.464;2022-07-05T02:43:20;100139.20;;;12.79;84.34
59588;BME280;45412;54.472;18.464;2022-07-05T02:46:09;100140.63;;;12.82;84.13
59588;BME280;45412;54.472;18.464;2022-07-05T02:48:58;100142.98;;;12.83;84.11
59588;BME280;45412;54.472;18.464;2022-07-05T02:51:50;100148.04;;;12.84;84.27
59588;BME280;45412;54.472;18.464;2022-07-05T02:54:38;100149.49;;;12.84;84.19
59588;BME280;45412;54.472;18.464;2022-07-05T02:57:28;100147.59;;;12.85;84.29
59588;BME280;45412;54.472;18.464;2022-07-05T03:00:17;100148.70;;;12.87;84.19
59588;BME280;45412;54.472;18.464;2022-07-05T03:03:07;100149.26;;;12.91;83.99
59588;BME280;45412;54.472;18.464;2022-07-05T03:05:55;100146.21;;;12.95;83.95
59588;BME280;45412;54.472;18.464;2022-07-05T03:08:43;100149.58;;;13.00;83.84
59588;BME280;45412;54.472;18.464;2022-07-05T03:11:32;100149.63;;;13.03;83.72
59588;BME280;45412;54.472;18.464;2022-07-05T03:14:21;100151.69;;;13.06;83.73
59588;BME280;45412;54.472;18.464;2022-07-05T03:17:10;100149.62;;;13.07;83.52
59588;BME280;45412;54.472;18.464;2022-07-05T03:19:58;100148.27;;;13.08;83.53
59588;BME280;45412;54.472;18.464;2022-07-05T03:22:47;100146.27;;;13.11;83.61
59588;BME280;45412;54.472;18.464;2022-07-05T03:25:36;100143.75;;;13.14;83.56
59588;BME280;45412;54.472;18.464;2022-07-05T03:28:24;100147.87;;;13.17;83.40
59588;BME280;45412;54.472;18.464;2022-07-05T03:31:14;100147.81;;;13.22;83.07
59588;BME280;45412;54.472;18.464;2022-07-05T03:34:03;100152.54;;;13.25;83.06
59588;BME280;45412;54.472;18.464;2022-07-05T03:36:51;100155.64;;;13.28;83.17
59588;BME280;45412;54.472;18.464;2022-07-05T03:39:40;100153.05;;;13.32;83.01
59588;BME280;45412;54.472;18.464;2022-07-05T03:42:29;100147.97;;;13.35;83.03
59588;BME280;45412;54.472;18.464;2022-07-05T03:45:17;100147.02;;;13.40;82.93
59588;BME280;45412;54.472;18.464;2022-07-05T03:48:06;100151.33;;;13.45;83.25
59588;BME280;45412;54.472;18.464;2022-07-05T03:51:14;100150.42;;;13.52;82.79
59588;BME280;45412;54.472;18.464;2022-07-05T03:54:02;100154.96;;;13.61;82.54
59588;BME280;45412;54.472;18.464;2022-07-05T03:56:51;100155.73;;;13.70;82.38
59588;BME280;45412;54.472;18.464;2022-07-05T03:59:40;100161.15;;;13.80;81.89
59588;BME280;45412;54.472;18.464;2022-07-05T04:02:29;100161.75;;;13.89;81.65
59588;BME280;45412;54.472;18.464;2022-07-05T04:05:17;100165.17;;;13.98;80.91
59588;BME280;45412;54.472;18.464;2022-07-05T04:08:05;100173.33;;;14.11;80.42
59588;BME280;45412;54.472;18.464;2022-07-05T04:10:58;100172.02;;;14.23;79.88
59588;BME280;45412;54.472;18.464;2022-07-05T04:13:47;100175.08;;;14.36;79.36
59588;BME280;45412;54.472;18.464;2022-07-05T04:16:37;100175.91;;;14.51;78.97
59588;BME280;45412;54.472;18.464;2022-07-05T04:19:25;100181.02;;;14.66;78.36
59588;BME280;45412;54.472;18.464;2022-07-05T04:22:14;100175.02;;;14.80;77.80
59588;BME280;45412;54.472;18.464;2022-07-05T04:25:02;100178.11;;;14.95;77.33
59588;BME280;45412;54.472;18.464;2022-07-05T04:28:09;100174.11;;;15.13;76.58
59588;BME280;45412;54.472;18.464;2022-07-05T04:30:58;100179.63;;;15.32;75.95
59588;BME280;45412;54.472;18.464;2022-07-05T04:33:47;100175.83;;;15.54;75.10
59588;BME280;45412;54.472;18.464;2022-07-05T04:36:39;100170.77;;;15.83;73.82
59588;BME280;45412;54.472;18.464;2022-07-05T04:39:28;100164.16;;;16.16;73.03
59588;BME280;45412;54.472;18.464;2022-07-05T04:42:21;100166.16;;;16.55;71.54
59588;BME280;45412;54.472;18.464;2022-07-05T04:45:10;100165.45;;;16.98;70.17
59588;BME280;45412;54.472;18.464;2022-07-05T04:47:58;100164.36;;;17.48;68.55
59588;BME280;45412;54.472;18.464;2022-07-05T04:50:47;100156.38;;;18.10;66.96
59588;BME280;45412;54.472;18.464;2022-07-05T04:53:35;100154.96;;;18.87;65.35
59588;BME280;45412;54.472;18.464;2022-07-05T04:56:24;100153.69;;;19.64;61.92
59588;BME280;45412;54.472;18.464;2022-07-05T04:59:11;100152.38;;;20.39;59.51
59588;BME280;45412;54.472;18.464;2022-07-05T05:01:59;100153.23;;;21.13;56.37
59588;BME280;45412;54.472;18.464;2022-07-05T05:04:47;100153.45;;;21.84;54.87
59588;BME280;45412;54.472;18.464;2022-07-05T05:07:36;100153.58;;;22.58;52.01
59588;BME280;45412;54.472;18.464;2022-07-05T05:10:26;100153.64;;;23.23;49.87
59588;BME280;45412;54.472;18.464;2022-07-05T05:13:14;100153.92;;;23.87;48.06
59588;BME280;45412;54.472;18.464;2022-07-05T05:16:02;100155.59;;;24.49;46.43
59588;BME280;45412;54.472;18.464;2022-07-05T05:18:51;100156.63;;;25.07;45.01
59588;BME280;45412;54.472;18.464;2022-07-05T05:21:39;100157.69;;;25.64;43.63
59588;BME280;45412;54.472;18.464;2022-07-05T05:24:27;100155.65;;;26.12;42.12
59588;BME280;45412;54.472;18.464;2022-07-05T05:27:15;100152.50;;;26.43;40.35
59588;BME280;45412;54.472;18.464;2022-07-05T05:30:03;100148.87;;;26.78;39.29
59588;BME280;45412;54.472;18.464;2022-07-05T05:32:51;100155.35;;;27.10;39.37
59588;BME280;45412;54.472;18.464;2022-07-05T05:35:40;100156.06;;;27.61;38.47
59588;BME280;45412;54.472;18.464;2022-07-05T05:38:33;100156.95;;;27.99;37.29
59588;BME280;45412;54.472;18.464;2022-07-05T05:41:22;100149.20;;;28.24;36.18
59588;BME280;45412;54.472;18.464;2022-07-05T05:44:10;100150.55;;;28.26;35.66
59588;BME280;45412;54.472;18.464;2022-07-05T05:47:01;100154.76;;;27.75;36.62
59588;BME280;45412;54.472;18.464;2022-07-05T05:49:49;100158.60;;;27.76;37.09
59588;BME280;45412;54.472;18.464;2022-07-05T05:52:37;100161.11;;;27.42;36.63
59588;BME280;45412;54.472;18.464;2022-07-05T05:55:27;100162.48;;;27.36;37.54
59588;BME280;45412;54.472;18.464;2022-07-05T05:58:22;100162.62;;;28.06;35.93
59588;BME280;45412;54.472;18.464;2022-07-05T06:01:11;100162.55;;;28.52;35.08
59588;BME280;45412;54.472;18.464;2022-07-05T06:03:59;100160.73;;;29.15;34.51
59588;BME280;45412;54.472;18.464;2022-07-05T06:06:47;100162.56;;;29.94;33.24
59588;BME280;45412;54.472;18.464;2022-07-05T06:09:35;100160.65;;;30.56;31.89
59588;BME280;45412;54.472;18.464;2022-07-05T06:12:23;100164.72;;;31.06;31.31
59588;BME280;45412;54.472;18.464;2022-07-05T06:15:12;100169.77;;;31.67;30.78
59588;BME280;45412;54.472;18.464;2022-07-05T06:18:00;100170.61;;;32.30;29.74
59588;BME280;45412;54.472;18.464;2022-07-05T06:20:48;100175.36;;;32.90;28.51
59588;BME280;45412;54.472;18.464;2022-07-05T06:23:36;100178.80;;;33.21;27.28
59588;BME280;45412;54.472;18.464;2022-07-05T06:26:24;100177.45;;;33.59;27.23
59588;BME280;45412;54.472;18.464;2022-07-05T06:29:12;100178.39;;;33.89;26.52
59588;BME280;45412;54.472;18.464;2022-07-05T06:32:00;100181.30;;;34.30;25.87
59588;BME280;45412;54.472;18.464;2022-07-05T06:34:48;100181.21;;;34.39;25.67
59588;BME280;45412;54.472;18.464;2022-07-05T06:38:00;100188.71;;;34.70;25.43
59588;BME280;45412;54.472;18.464;2022-07-05T06:40:48;100179.44;;;34.89;24.29
59588;BME280;45412;54.472;18.464;2022-07-05T06:43:36;100178.58;;;35.05;24.50
59588;BME280;45412;54.472;18.464;2022-07-05T06:46:28;100181.04;;;35.16;24.28
59588;BME280;45412;54.472;18.464;2022-07-05T06:49:16;100186.17;;;33.88;25.19
59588;BME280;45412;54.472;18.464;2022-07-05T06:52:05;100182.11;;;31.50;27.83
59588;BME280;45412;54.472;18.464;2022-07-05T06:54:53;100192.18;;;29.60;30.57
59588;BME280;45412;54.472;18.464;2022-07-05T06:57:43;100193.52;;;28.52;32.51
59588;BME280;45412;54.472;18.464;2022-07-05T07:00:53;100194.80;;;27.49;34.38
59588;BME280;45412;54.472;18.464;2022-07-05T07:04:01;100189.60;;;27.89;34.26
59588;BME280;45412;54.472;18.464;2022-07-05T07:07:07;100187.00;;;28.78;33.10
59588;BME280;45412;54.472;18.464;2022-07-05T07:10:16;100186.49;;;29.27;32.10
59588;BME280;45412;54.472;18.464;2022-07-05T07:13:05;100186.45;;;29.69;31.20
59588;BME280;45412;54.472;18.464;2022-07-05T07:15:52;100186.77;;;30.23;30.72
59588;BME280;45412;54.472;18.464;2022-07-05T07:18:40;100183.48;;;30.45;30.35
59588;BME280;45412;54.472;18.464;2022-07-05T07:21:49;100180.64;;;30.77;29.99
59588;BME280;45412;54.472;18.464;2022-07-05T07:24:38;100173.74;;;31.30;29.04
59588;BME280;45412;54.472;18.464;2022-07-05T07:27:26;100174.67;;;31.03;28.78
59588;BME280;45412;54.472;18.464;2022-07-05T07:30:16;100177.15;;;30.74;28.99
59588;BME280;45412;54.472;18.464;2022-07-05T07:33:04;100173.20;;;31.07;28.39
59588;BME280;45412;54.472;18.464;2022-07-05T07:36:04;100178.94;;;30.98;28.73
59588;BME280;45412;54.472;18.464;2022-07-05T07:38:52;100174.88;;;31.41;28.18
59588;BME280;45412;54.472;18.464;2022-07-05T07:41:39;100175.58;;;31.36;28.15
59588;BME280;45412;54.472;18.464;2022-07-05T07:44:27;100177.14;;;31.33;28.41
59588;BME280;45412;54.472;18.464;2022-07-05T07:47:15;100181.55;;;30.79;29.16
59588;BME280;45412;54.472;18.464;2022-07-05T07:50:05;100183.20;;;29.42;30.75
59588;BME280;45412;54.472;18.464;2022-07-05T07:52:53;100178.80;;;28.45;32.32
59588;BME280;45412;54.472;18.464;2022-07-05T07:55:41;100177.52;;;28.15;33.25
59588;BME280;45412;54.472;18.464;2022-07-05T07:58:35;100181.95;;;27.26;34.32
59588;BME280;45412;54.472;18.464;2022-07-05T08:01:23;100179.27;;;27.06;34.98
59588;BME280;45412;54.472;18.464;2022-07-05T08:04:13;100174.08;;;27.66;34.71
59588;BME280;45412;54.472;18.464;2022-07-05T08:07:03;100172.86;;;28.56;33.21
59588;BME280;45412;54.472;18.464;2022-07-05T08:09:52;100171.52;;;28.48;33.34
59588;BME280;45412;54.472;18.464;2022-07-05T08:12:40;100169.48;;;28.80;32.12
59588;BME280;45412;54.472;18.464;2022-07-05T08:15:28;100172.44;;;28.48;32.73
59588;BME280;45412;54.472;18.464;2022-07-05T08:18:17;100180.10;;;27.78;33.79
59588;BME280;45412;54.472;18.464;2022-07-05T08:21:24;100177.77;;;27.46;33.96
59588;BME280;45412;54.472;18.464;2022-07-05T08:24:28;100177.37;;;27.37;34.30
59588;BME280;45412;54.472;18.464;2022-07-05T08:27:16;100176.98;;;27.42;34.71
59588;BME280;45412;54.472;18.464;2022-07-05T08:30:06;100172.94;;;27.21;34.79
59588;BME280;45412;54.472;18.464;2022-07-05T08:32:54;100176.02;;;27.02;34.93
59588;BME280;45412;54.472;18.464;2022-07-05T08:35:43;100175.64;;;27.68;34.39
59588;BME280;45412;54.472;18.464;2022-07-05T08:38:31;100169.16;;;28.81;32.49
59588;BME280;45412;54.472;18.464;2022-07-05T08:41:21;100166.42;;;29.15;31.56
59588;BME280;45412;54.472;18.464;2022-07-05T08:44:13;100162.97;;;28.37;32.41
59588;BME280;45412;54.472;18.464;2022-07-05T08:47:03;100167.47;;;28.59;32.46
59588;BME280;45412;54.472;18.464;2022-07-05T08:49:51;100166.48;;;28.81;31.66
59588;BME280;45412;54.472;18.464;2022-07-05T08:52:41;100168.56;;;28.65;31.43
59588;BME280;45412;54.472;18.464;2022-07-05T08:55:34;100164.94;;;29.33;30.73
59588;BME280;45412;54.472;18.464;2022-07-05T08:58:22;100160.10;;;30.31;29.51
59588;BME280;45412;54.472;18.464;2022-07-05T09:01:12;100159.37;;;30.61;28.89
59588;BME280;45412;54.472;18.464;2022-07-05T09:04:07;100159.80;;;31.16;28.28
59588;BME280;45412;54.472;18.464;2022-07-05T09:07:03;100156.38;;;31.90;27.09
59588;BME280;45412;54.472;18.464;2022-07-05T09:09:52;100151.89;;;31.10;27.19
59588;BME280;45412;54.472;18.464;2022-07-05T09:12:40;100163.91;;;30.05;28.71
59588;BME280;45412;54.472;18.464;2022-07-05T09:15:29;100158.13;;;30.56;28.83
59588;BME280;45412;54.472;18.464;2022-07-05T09:21:34;100157.01;;;29.22;30.37
59588;BME280;45412;54.472;18.464;2022-07-05T09:24:25;100166.05;;;28.53;31.24
59588;BME280;45412;54.472;18.464;2022-07-05T09:27:13;100162.04;;;27.89;32.20
59588;BME280;45412;54.472;18.464;2022-07-05T09:30:02;100162.19;;;27.39;32.92
59588;BME280;45412;54.472;18.464;2022-07-05T09:33:13;100154.05;;;26.98;34.26
59588;BME280;45412;54.472;18.464;2022-07-05T09:36:02;100146.84;;;26.79;34.43
59588;BME280;45412;54.472;18.464;2022-07-05T09:38:51;100146.15;;;27.79;33.46
59588;BME280;45412;54.472;18.464;2022-07-05T09:41:39;100135.61;;;28.75;31.66
59588;BME280;45412;54.472;18.464;2022-07-05T09:44:27;100130.46;;;29.21;31.18
59588;BME280;45412;54.472;18.464;2022-07-05T09:47:19;100119.27;;;30.18;30.07
59588;BME280;45412;54.472;18.464;2022-07-05T09:50:07;100114.23;;;31.16;28.52
59588;BME280;45412;54.472;18.464;2022-07-05T09:52:58;100117.33;;;31.96;26.96
59588;BME280;45412;54.472;18.464;2022-07-05T09:56:03;100118.19;;;31.77;26.09
59588;BME280;45412;54.472;18.464;2022-07-05T09:58:51;100110.75;;;31.99;26.58
59588;BME280;45412;54.472;18.464;2022-07-05T10:01:42;100117.63;;;31.61;26.60
59588;BME280;45412;54.472;18.464;2022-07-05T10:04:30;100112.05;;;31.52;26.92
59588;BME280;45412;54.472;18.464;2022-07-05T10:07:31;100118.35;;;31.72;26.47
59588;BME280;45412;54.472;18.464;2022-07-05T10:10:22;100117.59;;;31.50;25.77
59588;BME280;45412;54.472;18.464;2022-07-05T10:13:16;100124.38;;;31.92;25.54
59588;BME280;45412;54.472;18.464;2022-07-05T10:16:04;100125.22;;;32.35;24.80
59588;BME280;45412;54.472;18.464;2022-07-05T10:18:56;100122.24;;;32.91;24.50
59588;BME280;45412;54.472;18.464;2022-07-05T10:21:45;100118.84;;;32.24;25.04
59588;BME280;45412;54.472;18.464;2022-07-05T10:24:54;100114.84;;;31.65;26.24
59588;BME280;45412;54.472;18.464;2022-07-05T10:27:43;100114.09;;;31.52;26.35
59588;BME280;45412;54.472;18.464;2022-07-05T10:30:33;100115.13;;;30.88;27.60
59588;BME280;45412;54.472;18.464;2022-07-05T10:33:22;100121.06;;;30.11;28.04
59588;BME280;45412;54.472;18.464;2022-07-05T10:36:14;100121.02;;;29.24;29.03
59588;BME280;45412;54.472;18.464;2022-07-05T10:39:03;100116.05;;;28.69;30.50
59588;BME280;45412;54.472;18.464;2022-07-05T10:41:52;100121.06;;;28.30;31.07
59588;BME280;45412;54.472;18.464;2022-07-05T10:44:41;100121.55;;;27.91;31.83
59588;BME280;45412;54.472;18.464;2022-07-05T10:47:31;100125.28;;;27.55;32.02
59588;BME280;45412;54.472;18.464;2022-07-05T10:50:22;100129.73;;;26.98;33.79
59588;BME280;45412;54.472;18.464;2022-07-05T10:53:12;100143.14;;;26.23;37.02
59588;BME280;45412;54.472;18.464;2022-07-05T10:59:08;100136.90;;;25.08;39.99
59588;BME280;45412;54.472;18.464;2022-07-05T11:02:12;100140.32;;;24.59;41.48
59588;BME280;45412;54.472;18.464;2022-07-05T11:05:01;100141.09;;;24.16;42.06
59588;BME280;45412;54.472;18.464;2022-07-05T11:08:02;100142.57;;;24.05;42.83
59588;BME280;45412;54.472;18.464;2022-07-05T11:11:12;100148.67;;;23.91;44.08
59588;BME280;45412;54.472;18.464;2022-07-05T11:14:03;100151.79;;;23.54;44.72
59588;BME280;45412;54.472;18.464;2022-07-05T11:17:10;100151.58;;;23.26;44.96
59588;BME280;45412;54.472;18.464;2022-07-05T11:20:32;100149.05;;;23.05;45.62
59588;BME280;45412;54.472;18.464;2022-07-05T11:23:26;100152.01;;;22.99;46.26
59588;BME280;45412;54.472;18.464;2022-07-05T11:26:17;100153.02;;;22.81;46.79
59588;BME280;45412;54.472;18.464;2022-07-05T11:29:06;100149.66;;;22.73;47.59
59588;BME280;45412;54.472;18.464;2022-07-05T11:32:16;100145.34;;;22.83;47.97
59588;BME280;45412;54.472;18.464;2022-07-05T11:35:17;100142.23;;;23.23;47.79
59588;BME280;45412;54.472;18.464;2022-07-05T11:38:07;100136.23;;;23.63;46.84
59588;BME280;45412;54.472;18.464;2022-07-05T11:41:15;100125.45;;;24.43;44.96
59588;BME280;45412;54.472;18.464;2022-07-05T11:44:05;100131.95;;;24.82;44.18
59588;BME280;45412;54.472;18.464;2022-07-05T11:46:54;100125.86;;;25.16;42.78
59588;BME280;45412;54.472;18.464;2022-07-05T11:49:58;100126.98;;;25.31;42.63
59588;BME280;45412;54.472;18.464;2022-07-05T11:52:49;100122.27;;;25.33;41.99
59588;BME280;45412;54.472;18.464;2022-07-05T11:55:39;100115.27;;;25.23;41.79
59588;BME280;45412;54.472;18.464;2022-07-05T11:58:31;100110.23;;;25.29;42.35
59588;BME280;45412;54.472;18.464;2022-07-05T12:01:20;100114.63;;;25.38;43.10
59588;BME280;45412;54.472;18.464;2022-07-05T12:04:08;100118.27;;;25.51;42.27
59588;BME280;45412;54.472;18.464;2022-07-05T12:06:57;100111.21;;;25.34;41.50
59588;BME280;45412;54.472;18.464;2022-07-05T12:09:51;100105.53;;;25.17;41.72
59588;BME280;45412;54.472;18.464;2022-07-05T12:13:08;100104.59;;;25.13;42.35
59588;BME280;45412;54.472;18.464;2022-07-05T12:16:02;100111.71;;;25.10;42.96
59588;BME280;45412;54.472;18.464;2022-07-05T12:18:53;100120.98;;;24.81;44.01
59588;BME280;45412;54.472;18.464;2022-07-05T12:21:55;100115.59;;;24.50;44.81
59588;BME280;45412;54.472;18.464;2022-07-05T12:24:42;100123.21;;;24.30;44.59
59588;BME280;45412;54.472;18.464;2022-07-05T12:27:33;100127.11;;;24.06;45.41
59588;BME280;45412;54.472;18.464;2022-07-05T12:30:22;100125.93;;;23.81;46.03
59588;BME280;45412;54.472;18.464;2022-07-05T12:33:11;100121.23;;;23.69;46.66
59588;BME280;45412;54.472;18.464;2022-07-05T12:36:01;100125.19;;;23.95;47.42
59588;BME280;45412;54.472;18.464;2022-07-05T12:38:48;100128.38;;;24.17;48.06
59588;BME280;45412;54.472;18.464;2022-07-05T12:41:42;100140.19;;;24.34;49.12
59588;BME280;45412;54.472;18.464;2022-07-05T12:44:30;100138.52;;;24.50;50.05
59588;BME280;45412;54.472;18.464;2022-07-05T12:47:18;100139.94;;;24.28;50.49
59588;BME280;45412;54.472;18.464;2022-07-05T12:50:07;100135.20;;;24.05;51.45
59588;BME280;45412;54.472;18.464;2022-07-05T12:53:04;100131.73;;;23.90;52.44
59588;BME280;45412;54.472;18.464;2022-07-05T12:56:13;100131.35;;;23.87;53.16
59588;BME280;45412;54.472;18.464;2022-07-05T12:59:22;100134.19;;;24.17;52.62
59588;BME280;45412;54.472;18.464;2022-07-05T13:02:10;100129.10;;;24.22;52.15
59588;BME280;45412;54.472;18.464;2022-07-05T13:05:01;100128.95;;;24.20;52.30
59588;BME280;45412;54.472;18.464;2022-07-05T13:07:51;100135.95;;;24.19;52.18
59588;BME280;45412;54.472;18.464;2022-07-05T13:10:46;100134.02;;;24.24;52.25
59588;BME280;45412;54.472;18.464;2022-07-05T13:13:34;100130.27;;;24.38;51.78
59588;BME280;45412;54.472;18.464;2022-07-05T13:16:22;100127.30;;;24.56;51.10
59588;BME280;45412;54.472;18.464;2022-07-05T13:19:11;100126.98;;;24.56;50.84
59588;BME280;45412;54.472;18.464;2022-07-05T13:22:00;100128.92;;;24.38;51.28
59588;BME280;45412;54.472;18.464;2022-07-05T13:24:48;100136.05;;;24.06;51.13
59588;BME280;45412;54.472;18.464;2022-07-05T13:27:40;100136.48;;;23.75;51.90
59588;BME280;45412;54.472;18.464;2022-07-05T13:30:29;100137.47;;;23.45;52.66
59588;BME280;45412;54.472;18.464;2022-07-05T13:33:17;100140.38;;;23.25;53.09
59588;BME280;45412;54.472;18.464;2022-07-05T13:36:05;100148.94;;;22.89;53.22
59588;BME280;45412;54.472;18.464;2022-07-05T13:38:53;100147.47;;;22.36;53.51
59588;BME280;45412;54.472;18.464;2022-07-05T13:41:42;100152.18;;;22.06;54.78
59588;BME280;45412;54.472;18.464;2022-07-05T13:44:30;100151.16;;;21.80;55.18
59588;BME280;45412;54.472;18.464;2022-07-05T13:47:19;100161.64;;;21.61;55.33
59588;BME280;45412;54.472;18.464;2022-07-05T13:50:08;100155.71;;;21.49;56.09
59588;BME280;45412;54.472;18.464;2022-07-05T13:53:14;100153.39;;;21.53;56.15
59588;BME280;45412;54.472;18.464;2022-07-05T13:56:06;100152.02;;;21.59;56.28
59588;BME280;45412;54.472;18.464;2022-07-05T13:58:55;100140.75;;;21.70;56.40
59588;BME280;45412;54.472;18.464;2022-07-05T14:01:43;100135.44;;;21.79;56.70
59588;BME280;45412;54.472;18.464;2022-07-05T14:04:32;100147.23;;;21.74;56.59
59588;BME280;45412;54.472;18.464;2022-07-05T14:07:22;100154.22;;;21.63;57.01
59588;BME280;45412;54.472;18.464;2022-07-05T14:10:10;100155.23;;;21.57;57.44
59588;BME280;45412;54.472;18.464;2022-07-05T14:12:58;100151.51;;;21.51;57.76
59588;BME280;45412;54.472;18.464;2022-07-05T14:15:47;100152.45;;;21.54;57.69
59588;BME280;45412;54.472;18.464;2022-07-05T14:18:35;100161.32;;;21.58;58.00
59588;BME280;45412;54.472;18.464;2022-07-05T14:21:23;100158.37;;;21.58;57.74
59588;BME280;45412;54.472;18.464;2022-07-05T14:24:24;100163.04;;;21.51;57.60
59588;BME280;45412;54.472;18.464;2022-07-05T14:27:12;100167.45;;;21.44;57.72
59588;BME280;45412;54.472;18.464;2022-07-05T14:30:00;100169.77;;;21.37;58.02
59588;BME280;45412;54.472;18.464;2022-07-05T14:32:50;100165.52;;;21.25;57.61
59588;BME280;45412;54.472;18.464;2022-07-05T14:35:39;100172.94;;;21.14;58.02
59588;BME280;45412;54.472;18.464;2022-07-05T14:38:27;100175.36;;;21.03;57.87
59588;BME280;45412;54.472;18.464;2022-07-05T14:41:15;100177.80;;;20.90;56.86
59588;BME280;45412;54.472;18.464;2022-07-05T14:44:04;100179.48;;;20.79;56.63
59588;BME280;45412;54.472;18.464;2022-07-05T14:46:52;100174.92;;;20.68;56.22
59588;BME280;45412;54.472;18.464;2022-07-05T14:49:40;100177.96;;;20.60;56.54